sensor_id;sensor_type;location;lat;lon;timestamp;P1;durP1;ratioP1;P2;durP2;ratioP2
64291;SDS011;50628;51.008;13.658;2022-09-09T00:04:21;1.87;;;0.33;;
64291;SDS011;50628;51.008;13.658;2022-09-09T00:09:29;2.17;;;0.50;;
64291;SDS011;50628;51.008;13.658;2022-09-09T00:14:41;1.97;;;0.50;;
64291;SDS011;50628;51.008;13.658;2022-09-09T00:19:50;1.40;;;0.60;;
64291;SDS011;50628;51.008;13.658;2022-09-09T00:25:02;1.57;;;0.50;;
64291;SDS011;50628;51.008;13.658;2022-09-09T00:30:17;6.55;;;0.40;;
64291;SDS011;50628;51.008;13.658;2022-09-09T00:35:24;3.00;;;0.40;;
64291;SDS011;50628;51.008;13.658;2022-09-09T00:40:29;1.17;;;0.60;;
64291;SDS011;50628;51.008;13.658;2022-09-09T00:45:41;2.00;;;0.40;;
64291;SDS011;50628;51.008;13.658;2022-09-09T00:50:57;0.93;;;0.38;;
64291;SDS011;50628;51.008;13.658;2022-09-09T00:56:09;1.23;;;0.40;;
64291;SDS011;50628;51.008;13.658;2022-09-09T01:01:15;1.20;;;0.30;;
64291;SDS011;50628;51.008;13.658;2022-09-09T01:06:19;4.07;;;0.63;;
64291;SDS011;50628;51.008;13.658;2022-09-09T01:11:29;3.45;;;0.50;;
64291;SDS011;50628;51.008;13.658;2022-09-09T01:16:39;3.88;;;0.43;;
64291;SDS011;50628;51.008;13.658;2022-09-09T01:21:44;1.30;;;0.45;;
64291;SDS011;50628;51.008;13.658;2022-09-09T01:26:59;3.83;;;0.50;;
64291;SDS011;50628;51.008;13.658;2022-09-09T01:37:41;3.93;;;0.40;;
64291;SDS011;50628;51.008;13.658;2022-09-09T01:42:44;1.20;;;0.40;;
64291;SDS011;50628;51.008;13.658;2022-09-09T01:47:46;4.37;;;1.40;;
64291;SDS011;50628;51.008;13.658;2022-09-09T01:53:07;5.53;;;1.53;;
64291;SDS011;50628;51.008;13.658;2022-09-09T01:58:14;4.83;;;1.20;;
64291;SDS011;50628;51.008;13.658;2022-09-09T02:03:28;1.27;;;0.50;;
64291;SDS011;50628;51.008;13.658;2022-09-09T02:08:45;3.27;;;1.00;;
64291;SDS011;50628;51.008;13.658;2022-09-09T02:13:51;4.47;;;1.43;;
64291;SDS011;50628;51.008;13.658;2022-09-09T02:18:57;5.57;;;2.10;;
64291;SDS011;50628;51.008;13.658;2022-09-09T02:24:14;8.10;;;1.63;;
64291;SDS011;50628;51.008;13.658;2022-09-09T02:29:25;8.17;;;1.77;;
64291;SDS011;50628;51.008;13.658;2022-09-09T02:34:31;12.47;;;2.13;;
64291;SDS011;50628;51.008;13.658;2022-09-09T02:39:37;6.00;;;1.60;;
64291;SDS011;50628;51.008;13.658;2022-09-09T02:44:44;3.27;;;1.27;;
64291;SDS011;50628;51.008;13.658;2022-09-09T02:49:49;5.00;;;1.53;;
64291;SDS011;50628;51.008;13.658;2022-09-09T02:55:04;9.97;;;2.27;;
64291;SDS011;50628;51.008;13.658;2022-09-09T03:00:13;11.00;;;3.00;;
64291;SDS011;50628;51.008;13.658;2022-09-09T03:05:16;6.13;;;2.10;;
64291;SDS011;50628;51.008;13.658;2022-09-09T03:10:18;3.60;;;2.13;;
64291;SDS011;50628;51.008;13.658;2022-09-09T03:15:22;6.77;;;2.00;;
64291;SDS011;50628;51.008;13.658;2022-09-09T03:20:26;5.60;;;1.90;;
64291;SDS011;50628;51.008;13.658;2022-09-09T03:25:29;5.97;;;1.33;;
64291;SDS011;50628;51.008;13.658;2022-09-09T03:30:32;3.77;;;1.20;;
64291;SDS011;50628;51.008;13.658;2022-09-09T03:35:35;7.30;;;1.87;;
64291;SDS011;50628;51.008;13.658;2022-09-09T03:40:37;11.73;;;1.67;;
64291;SDS011;50628;51.008;13.658;2022-09-09T03:45:41;5.97;;;1.77;;
64291;SDS011;50628;51.008;13.658;2022-09-09T03:50:46;4.73;;;1.90;;
64291;SDS011;50628;51.008;13.658;2022-09-09T03:55:49;12.37;;;1.83;;
64291;SDS011;50628;51.008;13.658;2022-09-09T04:00:58;13.10;;;2.30;;
64291;SDS011;50628;51.008;13.658;2022-09-09T04:06:02;7.57;;;1.50;;
64291;SDS011;50628;51.008;13.658;2022-09-09T04:11:06;6.50;;;2.00;;
64291;SDS011;50628;51.008;13.658;2022-09-09T04:16:11;13.50;;;2.00;;
64291;SDS011;50628;51.008;13.658;2022-09-09T04:21:16;10.77;;;2.17;;
64291;SDS011;50628;51.008;13.658;2022-09-09T04:26:17;9.00;;;2.43;;
64291;SDS011;50628;51.008;13.658;2022-09-09T04:31:22;6.00;;;1.60;;
64291;SDS011;50628;51.008;13.658;2022-09-09T04:36:27;6.20;;;2.00;;
64291;SDS011;50628;51.008;13.658;2022-09-09T04:41:33;8.40;;;2.30;;
64291;SDS011;50628;51.008;13.658;2022-09-09T04:46:36;3.77;;;1.87;;
64291;SDS011;50628;51.008;13.658;2022-09-09T04:51:38;6.40;;;2.00;;
64291;SDS011;50628;51.008;13.658;2022-09-09T04:56:40;6.30;;;1.93;;
64291;SDS011;50628;51.008;13.658;2022-09-09T05:01:46;9.00;;;1.63;;
64291;SDS011;50628;51.008;13.658;2022-09-09T05:06:47;10.23;;;3.23;;
64291;SDS011;50628;51.008;13.658;2022-09-09T05:11:49;5.57;;;1.53;;
64291;SDS011;50628;51.008;13.658;2022-09-09T05:17:00;12.20;;;5.40;;
64291;SDS011;50628;51.008;13.658;2022-09-09T05:22:01;5.33;;;1.93;;
64291;SDS011;50628;51.008;13.658;2022-09-09T05:27:12;10.30;;;3.00;;
64291;SDS011;50628;51.008;13.658;2022-09-09T05:32:17;4.13;;;2.10;;
64291;SDS011;50628;51.008;13.658;2022-09-09T05:37:22;7.10;;;2.27;;
64291;SDS011;50628;51.008;13.658;2022-09-09T05:42:24;11.07;;;2.77;;
64291;SDS011;50628;51.008;13.658;2022-09-09T05:47:27;6.90;;;1.93;;
64291;SDS011;50628;51.008;13.658;2022-09-09T05:52:30;6.73;;;2.33;;
64291;SDS011;50628;51.008;13.658;2022-09-09T05:57:32;11.70;;;2.33;;
64291;SDS011;50628;51.008;13.658;2022-09-09T06:02:36;12.43;;;3.00;;
64291;SDS011;50628;51.008;13.658;2022-09-09T06:07:39;6.83;;;1.93;;
64291;SDS011;50628;51.008;13.658;2022-09-09T06:12:44;7.90;;;2.40;;
64291;SDS011;50628;51.008;13.658;2022-09-09T06:17:47;7.40;;;1.73;;
64291;SDS011;50628;51.008;13.658;2022-09-09T06:22:55;6.10;;;1.50;;
64291;SDS011;50628;51.008;13.658;2022-09-09T06:27:57;7.83;;;2.23;;
64291;SDS011;50628;51.008;13.658;2022-09-09T06:33:00;9.37;;;2.20;;
64291;SDS011;50628;51.008;13.658;2022-09-09T06:38:02;8.23;;;2.13;;
64291;SDS011;50628;51.008;13.658;2022-09-09T06:43:06;3.67;;;0.68;;
64291;SDS011;50628;51.008;13.658;2022-09-09T06:48:14;3.85;;;1.17;;
64291;SDS011;50628;51.008;13.658;2022-09-09T06:53:16;6.63;;;0.65;;
64291;SDS011;50628;51.008;13.658;2022-09-09T06:58:20;2.05;;;0.73;;
64291;SDS011;50628;51.008;13.658;2022-09-09T07:03:25;2.20;;;0.63;;
64291;SDS011;50628;51.008;13.658;2022-09-09T07:08:28;2.85;;;0.75;;
64291;SDS011;50628;51.008;13.658;2022-09-09T07:13:31;3.88;;;0.43;;
64291;SDS011;50628;51.008;13.658;2022-09-09T07:18:35;4.68;;;0.90;;
64291;SDS011;50628;51.008;13.658;2022-09-09T07:23:37;2.95;;;0.40;;
64291;SDS011;50628;51.008;13.658;2022-09-09T07:28:40;4.93;;;0.70;;
64291;SDS011;50628;51.008;13.658;2022-09-09T07:33:45;4.70;;;0.50;;
64291;SDS011;50628;51.008;13.658;2022-09-09T07:38:48;3.55;;;0.60;;
64291;SDS011;50628;51.008;13.658;2022-09-09T07:43:52;5.50;;;0.60;;
64291;SDS011;50628;51.008;13.658;2022-09-09T07:48:56;3.50;;;0.50;;
64291;SDS011;50628;51.008;13.658;2022-09-09T07:54:03;3.35;;;0.50;;
64291;SDS011;50628;51.008;13.658;2022-09-09T07:59:07;4.85;;;0.50;;
64291;SDS011;50628;51.008;13.658;2022-09-09T08:04:13;4.18;;;1.15;;
64291;SDS011;50628;51.008;13.658;2022-09-09T08:09:18;4.15;;;0.47;;
64291;SDS011;50628;51.008;13.658;2022-09-09T08:14:22;2.95;;;0.52;;
64291;SDS011;50628;51.008;13.658;2022-09-09T08:19:26;4.82;;;0.90;;
64291;SDS011;50628;51.008;13.658;2022-09-09T08:24:29;4.60;;;0.75;;
64291;SDS011;50628;51.008;13.658;2022-09-09T08:29:31;8.07;;;2.03;;
64291;SDS011;50628;51.008;13.658;2022-09-09T08:34:35;3.80;;;0.88;;
64291;SDS011;50628;51.008;13.658;2022-09-09T08:39:42;3.70;;;0.88;;
64291;SDS011;50628;51.008;13.658;2022-09-09T08:44:50;4.25;;;0.45;;
64291;SDS011;50628;51.008;13.658;2022-09-09T08:50:13;9.43;;;3.10;;
64291;SDS011;50628;51.008;13.658;2022-09-09T08:55:25;5.43;;;0.75;;
64291;SDS011;50628;51.008;13.658;2022-09-09T09:00:33;2.00;;;0.55;;
64291;SDS011;50628;51.008;13.658;2022-09-09T09:05:46;3.30;;;0.45;;
64291;SDS011;50628;51.008;13.658;2022-09-09T09:10:53;3.88;;;0.50;;
64291;SDS011;50628;51.008;13.658;2022-09-09T09:16:02;4.30;;;0.70;;
64291;SDS011;50628;51.008;13.658;2022-09-09T09:21:13;2.42;;;0.30;;
64291;SDS011;50628;51.008;13.658;2022-09-09T09:26:22;3.35;;;0.50;;
64291;SDS011;50628;51.008;13.658;2022-09-09T09:31:29;4.18;;;0.65;;
64291;SDS011;50628;51.008;13.658;2022-09-09T09:36:38;7.05;;;1.10;;
64291;SDS011;50628;51.008;13.658;2022-09-09T09:41:45;2.90;;;0.70;;
64291;SDS011;50628;51.008;13.658;2022-09-09T09:46:48;3.67;;;0.60;;
64291;SDS011;50628;51.008;13.658;2022-09-09T09:51:51;7.90;;;0.90;;
64291;SDS011;50628;51.008;13.658;2022-09-09T09:57:07;5.70;;;0.82;;
64291;SDS011;50628;51.008;13.658;2022-09-09T10:02:20;5.68;;;0.93;;
64291;SDS011;50628;51.008;13.658;2022-09-09T10:07:31;1.95;;;1.02;;
64291;SDS011;50628;51.008;13.658;2022-09-09T10:12:37;4.38;;;1.33;;
64291;SDS011;50628;51.008;13.658;2022-09-09T10:17:49;3.97;;;0.50;;
64291;SDS011;50628;51.008;13.658;2022-09-09T10:23:02;4.40;;;0.60;;
64291;SDS011;50628;51.008;13.658;2022-09-09T10:28:23;4.07;;;0.70;;
64291;SDS011;50628;51.008;13.658;2022-09-09T10:33:37;2.92;;;0.55;;
64291;SDS011;50628;51.008;13.658;2022-09-09T10:38:54;5.18;;;0.70;;
64291;SDS011;50628;51.008;13.658;2022-09-09T10:44:06;7.07;;;0.88;;
64291;SDS011;50628;51.008;13.658;2022-09-09T10:49:42;4.88;;;0.52;;
64291;SDS011;50628;51.008;13.658;2022-09-09T10:55:02;2.00;;;0.50;;
64291;SDS011;50628;51.008;13.658;2022-09-09T11:00:14;4.22;;;0.55;;
64291;SDS011;50628;51.008;13.658;2022-09-09T11:05:20;4.47;;;0.82;;
64291;SDS011;50628;51.008;13.658;2022-09-09T11:10:33;4.63;;;0.60;;
64291;SDS011;50628;51.008;13.658;2022-09-09T11:15:41;9.60;;;1.13;;
64291;SDS011;50628;51.008;13.658;2022-09-09T11:20:47;2.92;;;0.60;;
64291;SDS011;50628;51.008;13.658;2022-09-09T11:25:54;3.10;;;0.80;;
64291;SDS011;50628;51.008;13.658;2022-09-09T11:31:02;2.67;;;0.50;;
64291;SDS011;50628;51.008;13.658;2022-09-09T11:36:21;2.85;;;0.80;;
64291;SDS011;50628;51.008;13.658;2022-09-09T11:41:41;3.45;;;0.60;;
64291;SDS011;50628;51.008;13.658;2022-09-09T11:46:43;6.45;;;0.70;;
64291;SDS011;50628;51.008;13.658;2022-09-09T11:51:50;4.43;;;0.80;;
64291;SDS011;50628;51.008;13.658;2022-09-09T11:56:53;5.35;;;1.05;;
64291;SDS011;50628;51.008;13.658;2022-09-09T12:01:55;4.72;;;0.60;;
64291;SDS011;50628;51.008;13.658;2022-09-09T12:06:59;3.60;;;0.60;;
64291;SDS011;50628;51.008;13.658;2022-09-09T12:12:17;4.32;;;2.13;;
64291;SDS011;50628;51.008;13.658;2022-09-09T12:17:24;4.32;;;0.80;;
64291;SDS011;50628;51.008;13.658;2022-09-09T12:22:29;7.88;;;1.33;;
64291;SDS011;50628;51.008;13.658;2022-09-09T12:27:42;5.45;;;1.30;;
64291;SDS011;50628;51.008;13.658;2022-09-09T12:32:59;12.27;;;2.22;;
64291;SDS011;50628;51.008;13.658;2022-09-09T12:38:02;4.05;;;0.50;;
64291;SDS011;50628;51.008;13.658;2022-09-09T12:43:18;9.10;;;0.95;;
64291;SDS011;50628;51.008;13.658;2022-09-09T12:48:22;4.65;;;0.90;;
64291;SDS011;50628;51.008;13.658;2022-09-09T12:53:30;4.00;;;0.40;;
64291;SDS011;50628;51.008;13.658;2022-09-09T12:58:36;1.42;;;0.30;;
64291;SDS011;50628;51.008;13.658;2022-09-09T13:03:41;3.35;;;0.30;;
64291;SDS011;50628;51.008;13.658;2022-09-09T13:08:47;2.25;;;0.50;;
64291;SDS011;50628;51.008;13.658;2022-09-09T13:13:51;9.10;;;0.60;;
64291;SDS011;50628;51.008;13.658;2022-09-09T13:18:55;4.22;;;0.40;;
64291;SDS011;50628;51.008;13.658;2022-09-09T13:23:57;2.53;;;0.28;;
64291;SDS011;50628;51.008;13.658;2022-09-09T13:29:16;2.75;;;0.30;;
64291;SDS011;50628;51.008;13.658;2022-09-09T13:34:26;4.13;;;0.57;;
64291;SDS011;50628;51.008;13.658;2022-09-09T13:39:30;4.60;;;0.47;;
64291;SDS011;50628;51.008;13.658;2022-09-09T13:44:33;3.15;;;0.52;;
64291;SDS011;50628;51.008;13.658;2022-09-09T13:49:38;5.43;;;0.80;;
64291;SDS011;50628;51.008;13.658;2022-09-09T13:54:40;2.72;;;0.25;;
64291;SDS011;50628;51.008;13.658;2022-09-09T13:59:43;5.03;;;0.40;;
64291;SDS011;50628;51.008;13.658;2022-09-09T14:04:45;10.35;;;0.88;;
64291;SDS011;50628;51.008;13.658;2022-09-09T14:09:50;7.63;;;1.10;;
64291;SDS011;50628;51.008;13.658;2022-09-09T14:14:54;3.38;;;0.50;;
64291;SDS011;50628;51.008;13.658;2022-09-09T14:19:55;2.63;;;0.50;;
64291;SDS011;50628;51.008;13.658;2022-09-09T14:24:57;2.42;;;0.50;;
64291;SDS011;50628;51.008;13.658;2022-09-09T14:30:00;4.30;;;0.63;;
64291;SDS011;50628;51.008;13.658;2022-09-09T14:35:03;2.33;;;0.40;;
64291;SDS011;50628;51.008;13.658;2022-09-09T14:40:05;1.42;;;0.35;;
64291;SDS011;50628;51.008;13.658;2022-09-09T14:45:10;2.78;;;0.50;;
64291;SDS011;50628;51.008;13.658;2022-09-09T14:50:12;2.50;;;0.43;;
64291;SDS011;50628;51.008;13.658;2022-09-09T14:55:14;1.80;;;0.45;;
64291;SDS011;50628;51.008;13.658;2022-09-09T15:00:18;1.98;;;0.43;;
64291;SDS011;50628;51.008;13.658;2022-09-09T15:05:20;2.30;;;0.50;;
64291;SDS011;50628;51.008;13.658;2022-09-09T15:10:22;5.47;;;1.48;;
64291;SDS011;50628;51.008;13.658;2022-09-09T15:15:25;10.95;;;4.68;;
64291;SDS011;50628;51.008;13.658;2022-09-09T15:20:27;2.60;;;0.70;;
64291;SDS011;50628;51.008;13.658;2022-09-09T15:25:29;4.47;;;0.70;;
64291;SDS011;50628;51.008;13.658;2022-09-09T15:30:33;1.98;;;0.45;;
64291;SDS011;50628;51.008;13.658;2022-09-09T15:35:35;1.63;;;0.57;;
64291;SDS011;50628;51.008;13.658;2022-09-09T15:40:37;3.22;;;1.80;;
64291;SDS011;50628;51.008;13.658;2022-09-09T15:45:40;3.05;;;0.70;;
64291;SDS011;50628;51.008;13.658;2022-09-09T15:50:41;7.70;;;1.17;;
64291;SDS011;50628;51.008;13.658;2022-09-09T15:55:43;4.13;;;0.55;;
64291;SDS011;50628;51.008;13.658;2022-09-09T16:00:47;4.63;;;0.60;;
64291;SDS011;50628;51.008;13.658;2022-09-09T16:05:50;3.30;;;1.10;;
64291;SDS011;50628;51.008;13.658;2022-09-09T16:10:52;6.00;;;0.70;;
64291;SDS011;50628;51.008;13.658;2022-09-09T16:15:55;4.35;;;0.88;;
64291;SDS011;50628;51.008;13.658;2022-09-09T16:20:58;6.57;;;1.52;;
64291;SDS011;50628;51.008;13.658;2022-09-09T16:26:00;3.47;;;1.30;;
64291;SDS011;50628;51.008;13.658;2022-09-09T16:31:05;5.65;;;0.90;;
64291;SDS011;50628;51.008;13.658;2022-09-09T16:36:08;3.85;;;0.70;;
64291;SDS011;50628;51.008;13.658;2022-09-09T16:41:13;1.95;;;0.63;;
64291;SDS011;50628;51.008;13.658;2022-09-09T16:46:17;1.42;;;0.65;;
64291;SDS011;50628;51.008;13.658;2022-09-09T16:51:20;3.05;;;0.75;;
64291;SDS011;50628;51.008;13.658;2022-09-09T16:56:25;3.03;;;0.70;;
64291;SDS011;50628;51.008;13.658;2022-09-09T17:01:30;2.13;;;0.73;;
64291;SDS011;50628;51.008;13.658;2022-09-09T17:06:35;4.35;;;0.95;;
64291;SDS011;50628;51.008;13.658;2022-09-09T17:11:38;1.88;;;0.93;;
64291;SDS011;50628;51.008;13.658;2022-09-09T17:16:41;3.05;;;1.02;;
64291;SDS011;50628;51.008;13.658;2022-09-09T17:21:44;4.75;;;1.00;;
64291;SDS011;50628;51.008;13.658;2022-09-09T17:26:47;3.00;;;0.70;;
64291;SDS011;50628;51.008;13.658;2022-09-09T17:31:50;3.20;;;2.20;;
64291;SDS011;50628;51.008;13.658;2022-09-09T17:36:52;3.80;;;2.00;;
64291;SDS011;50628;51.008;13.658;2022-09-09T17:41:53;11.18;;;4.35;;
64291;SDS011;50628;51.008;13.658;2022-09-09T17:46:57;11.88;;;2.60;;
64291;SDS011;50628;51.008;13.658;2022-09-09T17:51:59;2.65;;;1.10;;
64291;SDS011;50628;51.008;13.658;2022-09-09T17:57:01;3.25;;;1.17;;
64291;SDS011;50628;51.008;13.658;2022-09-09T18:02:04;9.68;;;1.17;;
64291;SDS011;50628;51.008;13.658;2022-09-09T18:07:06;2.08;;;0.50;;
64291;SDS011;50628;51.008;13.658;2022-09-09T18:12:08;2.22;;;0.60;;
64291;SDS011;50628;51.008;13.658;2022-09-09T18:17:11;5.55;;;3.30;;
64291;SDS011;50628;51.008;13.658;2022-09-09T18:22:12;2.03;;;0.73;;
64291;SDS011;50628;51.008;13.658;2022-09-09T18:27:14;3.05;;;0.82;;
64291;SDS011;50628;51.008;13.658;2022-09-09T18:32:17;5.53;;;0.70;;
64291;SDS011;50628;51.008;13.658;2022-09-09T18:37:19;4.47;;;1.20;;
64291;SDS011;50628;51.008;13.658;2022-09-09T18:42:21;2.42;;;1.30;;
64291;SDS011;50628;51.008;13.658;2022-09-09T18:47:24;9.45;;;4.10;;
64291;SDS011;50628;51.008;13.658;2022-09-09T18:52:26;2.88;;;1.77;;
64291;SDS011;50628;51.008;13.658;2022-09-09T18:57:27;6.40;;;3.25;;
64291;SDS011;50628;51.008;13.658;2022-09-09T19:02:30;8.85;;;3.88;;
64291;SDS011;50628;51.008;13.658;2022-09-09T19:07:33;8.93;;;2.88;;
64291;SDS011;50628;51.008;13.658;2022-09-09T19:12:34;19.63;;;11.15;;
64291;SDS011;50628;51.008;13.658;2022-09-09T19:17:37;16.92;;;10.98;;
64291;SDS011;50628;51.008;13.658;2022-09-09T19:22:39;7.82;;;2.22;;
64291;SDS011;50628;51.008;13.658;2022-09-09T19:27:41;39.40;;;21.83;;
64291;SDS011;50628;51.008;13.658;2022-09-09T19:32:44;73.45;;;43.75;;
64291;SDS011;50628;51.008;13.658;2022-09-09T19:37:46;42.72;;;27.60;;
64291;SDS011;50628;51.008;13.658;2022-09-09T19:42:48;11.30;;;3.42;;
64291;SDS011;50628;51.008;13.658;2022-09-09T19:47:54;11.35;;;6.70;;
64291;SDS011;50628;51.008;13.658;2022-09-09T19:52:56;10.25;;;7.57;;
64291;SDS011;50628;51.008;13.658;2022-09-09T19:57:59;24.38;;;10.80;;
64291;SDS011;50628;51.008;13.658;2022-09-09T20:03:03;7.22;;;3.38;;
64291;SDS011;50628;51.008;13.658;2022-09-09T20:08:05;5.75;;;2.97;;
64291;SDS011;50628;51.008;13.658;2022-09-09T20:13:06;10.77;;;4.00;;
64291;SDS011;50628;51.008;13.658;2022-09-09T20:18:09;10.00;;;5.05;;
64291;SDS011;50628;51.008;13.658;2022-09-09T20:23:11;3.85;;;1.33;;
64291;SDS011;50628;51.008;13.658;2022-09-09T20:28:13;17.83;;;5.22;;
64291;SDS011;50628;51.008;13.658;2022-09-09T20:33:16;12.77;;;8.23;;
64291;SDS011;50628;51.008;13.658;2022-09-09T20:38:18;20.08;;;15.75;;
64291;SDS011;50628;51.008;13.658;2022-09-09T20:43:20;10.07;;;2.65;;
64291;SDS011;50628;51.008;13.658;2022-09-09T20:48:23;4.85;;;2.25;;
64291;SDS011;50628;51.008;13.658;2022-09-09T20:53:25;10.00;;;4.10;;
64291;SDS011;50628;51.008;13.658;2022-09-09T20:58:27;8.20;;;3.80;;
64291;SDS011;50628;51.008;13.658;2022-09-09T21:03:32;5.60;;;3.30;;
64291;SDS011;50628;51.008;13.658;2022-09-09T21:08:37;7.07;;;3.10;;
64291;SDS011;50628;51.008;13.658;2022-09-09T21:13:40;18.60;;;3.47;;
64291;SDS011;50628;51.008;13.658;2022-09-09T21:18:43;4.30;;;1.98;;
64291;SDS011;50628;51.008;13.658;2022-09-09T21:23:45;7.30;;;1.67;;
64291;SDS011;50628;51.008;13.658;2022-09-09T21:28:47;6.20;;;1.13;;
64291;SDS011;50628;51.008;13.658;2022-09-09T21:33:50;13.32;;;7.05;;
64291;SDS011;50628;51.008;13.658;2022-09-09T21:38:52;8.70;;;1.98;;
64291;SDS011;50628;51.008;13.658;2022-09-09T21:43:54;9.18;;;4.40;;
64291;SDS011;50628;51.008;13.658;2022-09-09T21:48:57;13.10;;;6.70;;
64291;SDS011;50628;51.008;13.658;2022-09-09T21:54:02;40.72;;;18.02;;
64291;SDS011;50628;51.008;13.658;2022-09-09T21:59:06;9.70;;;2.53;;
64291;SDS011;50628;51.008;13.658;2022-09-09T22:04:09;6.30;;;2.90;;
64291;SDS011;50628;51.008;13.658;2022-09-09T22:09:10;7.05;;;4.47;;
64291;SDS011;50628;51.008;13.658;2022-09-09T22:14:12;8.43;;;5.22;;
64291;SDS011;50628;51.008;13.658;2022-09-09T22:19:16;10.77;;;5.90;;
64291;SDS011;50628;51.008;13.658;2022-09-09T22:24:18;11.10;;;8.25;;
64291;SDS011;50628;51.008;13.658;2022-09-09T22:29:20;9.38;;;3.90;;
64291;SDS011;50628;51.008;13.658;2022-09-09T22:34:23;9.25;;;4.07;;
64291;SDS011;50628;51.008;13.658;2022-09-09T22:39:27;9.75;;;3.85;;
64291;SDS011;50628;51.008;13.658;2022-09-09T22:44:29;9.32;;;1.83;;
64291;SDS011;50628;51.008;13.658;2022-09-09T22:49:32;5.45;;;2.88;;
64291;SDS011;50628;51.008;13.658;2022-09-09T22:54:34;9.65;;;1.90;;
64291;SDS011;50628;51.008;13.658;2022-09-09T22:59:36;8.40;;;2.30;;
64291;SDS011;50628;51.008;13.658;2022-09-09T23:04:40;6.50;;;2.08;;
64291;SDS011;50628;51.008;13.658;2022-09-09T23:09:43;7.80;;;2.03;;
64291;SDS011;50628;51.008;13.658;2022-09-09T23:14:44;4.82;;;2.05;;
64291;SDS011;50628;51.008;13.658;2022-09-09T23:19:48;5.25;;;2.75;;
64291;SDS011;50628;51.008;13.658;2022-09-09T23:24:52;10.80;;;3.20;;
64291;SDS011;50628;51.008;13.658;2022-09-09T23:29:54;11.52;;;4.57;;
64291;SDS011;50628;51.008;13.658;2022-09-09T23:34:57;4.40;;;3.00;;
64291;SDS011;50628;51.008;13.658;2022-09-09T23:39:59;7.10;;;3.45;;
64291;SDS011;50628;51.008;13.658;2022-09-09T23:45:00;4.45;;;1.00;;
64291;SDS011;50628;51.008;13.658;2022-09-09T23:50:04;4.60;;;0.30;;
64291;SDS011;50628;51.008;13.658;2022-09-09T23:55:07;5.18;;;0.55;;
